createdAt,value
2023-02-16T00:01:59.233Z,5.12
2023-02-16T00:04:28.754Z,5.10
2023-02-16T00:07:00.261Z,5.00
2023-02-16T00:09:29.320Z,4.99
2023-02-16T00:12:14.926Z,5.08
2023-02-16T00:14:41.451Z,5.16
2023-02-16T00:17:11.270Z,5.21
2023-02-16T00:19:40.256Z,5.14
2023-02-16T00:22:08.152Z,5.27
2023-02-16T00:24:35.262Z,5.28
2023-02-16T00:27:01.973Z,5.28
2023-02-16T00:29:37.282Z,5.20
2023-02-16T00:32:05.901Z,5.29
2023-02-16T00:34:35.633Z,5.32
2023-02-16T00:37:05.166Z,5.30
2023-02-16T00:39:32.416Z,5.22
2023-02-16T00:42:03.179Z,4.88
2023-02-16T00:44:34.205Z,4.79
2023-02-16T00:47:10.962Z,4.94
2023-02-16T00:49:37.486Z,4.90
2023-02-16T00:52:24.280Z,4.92
2023-02-16T00:54:50.798Z,5.00
2023-02-16T00:57:19.008Z,4.72
2023-02-16T00:59:47.160Z,4.62
2023-02-16T01:02:14.016Z,4.32
2023-02-16T01:04:40.832Z,4.36
2023-02-16T01:07:35.043Z,4.26
2023-02-16T01:10:24.365Z,4.47
2023-02-16T01:12:50.895Z,4.48
2023-02-16T01:15:21.221Z,4.58
2023-02-16T01:17:47.762Z,4.56
2023-02-16T01:20:16.746Z,4.54
2023-02-16T01:22:43.242Z,4.71
2023-02-16T01:25:10.529Z,4.75
2023-02-16T01:27:38.373Z,4.78
2023-02-16T01:30:06.593Z,4.63
2023-02-16T01:32:36.933Z,4.60
2023-02-16T01:35:06.833Z,4.41
2023-02-16T01:37:36.766Z,4.46
2023-02-16T01:40:07.147Z,4.56
2023-02-16T01:42:44.911Z,4.46
2023-02-16T01:45:17.426Z,4.48
2023-02-16T01:47:54.487Z,4.22
2023-02-16T01:50:24.640Z,4.18
2023-02-16T01:53:01.707Z,4.22
2023-02-16T01:55:41.581Z,4.30
2023-02-16T01:58:45.104Z,4.36
2023-02-16T02:01:36.791Z,4.51
2023-02-16T02:04:30.720Z,4.74
2023-02-16T02:06:57.244Z,4.78
2023-02-16T02:09:38.532Z,4.68
2023-02-16T02:12:37.807Z,4.56
2023-02-16T02:15:09.201Z,4.35
2023-02-16T02:17:38.507Z,4.26
2023-02-16T02:20:11.059Z,4.06
2023-02-16T02:23:20.283Z,3.90
2023-02-16T02:26:07.097Z,3.93
2023-02-16T02:28:54.735Z,4.16
2023-02-16T02:31:37.262Z,4.16
2023-02-16T02:34:18.950Z,4.07
2023-02-16T02:37:00.654Z,4.02
2023-02-16T02:39:45.571Z,3.93
2023-02-16T02:42:40.822Z,3.81
2023-02-16T02:45:14.152Z,3.82
2023-02-16T02:47:43.817Z,3.84
2023-02-16T02:51:12.340Z,3.83
2023-02-16T02:53:50.239Z,3.64
2023-02-16T02:56:39.549Z,3.77
2023-02-16T02:59:27.959Z,3.60
2023-02-16T03:01:59.555Z,3.70
2023-02-16T03:04:30.578Z,3.73
2023-02-16T03:06:59.205Z,3.77
2023-02-16T03:09:26.393Z,3.70
2023-02-16T03:12:13.987Z,3.60
2023-02-16T03:15:01.423Z,3.38
2023-02-16T03:17:53.676Z,3.51
2023-02-16T03:20:42.681Z,3.61
2023-02-16T03:23:31.094Z,3.57
2023-02-16T03:26:16.054Z,3.61
2023-02-16T03:29:02.976Z,3.56
2023-02-16T03:31:36.601Z,3.54
2023-02-16T03:34:03.309Z,3.59
2023-02-16T03:36:33.409Z,3.70
2023-02-16T03:39:00.559Z,3.85
2023-02-16T03:41:31.635Z,3.75
2023-02-16T03:43:58.296Z,3.81
2023-02-16T03:46:24.982Z,3.79
2023-02-16T03:48:51.490Z,3.68
2023-02-16T03:51:18.140Z,3.59
2023-02-16T03:53:44.605Z,3.70
2023-02-16T03:56:11.419Z,3.62
2023-02-16T03:58:37.953Z,3.59
2023-02-16T04:01:04.781Z,3.62
2023-02-16T04:03:31.488Z,3.62
2023-02-16T04:05:58.006Z,3.74
2023-02-16T04:08:24.536Z,3.71
2023-02-16T04:10:51.053Z,3.70
2023-02-16T04:13:17.560Z,3.70
2023-02-16T04:15:44.095Z,3.61
2023-02-16T04:18:13.693Z,3.47
2023-02-16T04:20:42.300Z,3.33
2023-02-16T04:23:09.030Z,3.26
2023-02-16T04:25:35.766Z,3.12
2023-02-16T04:28:02.274Z,3.10
2023-02-16T04:30:31.065Z,2.96
2023-02-16T04:32:59.343Z,2.77
2023-02-16T04:35:25.880Z,2.66
2023-02-16T04:37:52.355Z,2.53
2023-02-16T04:40:19.323Z,2.57
2023-02-16T04:42:46.300Z,2.64
2023-02-16T04:45:16.498Z,2.66
2023-02-16T04:47:46.169Z,2.66
2023-02-16T04:50:14.114Z,2.67
2023-02-16T04:52:41.582Z,2.82
2023-02-16T04:55:10.799Z,2.78
2023-02-16T04:57:39.227Z,2.77
2023-02-16T05:00:10.060Z,2.95
2023-02-16T05:02:36.557Z,2.95
2023-02-16T05:05:03.117Z,2.99
2023-02-16T05:07:30.037Z,2.98
2023-02-16T05:09:56.521Z,2.79
2023-02-16T05:12:45.922Z,2.73
2023-02-16T05:15:12.532Z,2.89
2023-02-16T05:17:39.042Z,2.89
2023-02-16T05:20:06.632Z,2.92
2023-02-16T05:22:34.438Z,2.85
2023-02-16T05:25:02.132Z,2.92
2023-02-16T05:27:30.173Z,2.88
2023-02-16T05:29:56.742Z,2.80
2023-02-16T05:32:23.468Z,2.82
2023-02-16T05:34:50.258Z,2.95
2023-02-16T05:37:18.372Z,3.00
2023-02-16T05:39:48.499Z,2.87
2023-02-16T05:42:15.499Z,2.89
2023-02-16T05:44:42.160Z,2.71
2023-02-16T05:47:08.696Z,2.79
2023-02-16T05:49:35.345Z,2.71
2023-02-16T05:52:02.172Z,2.72
2023-02-16T05:54:28.717Z,2.77
2023-02-16T05:56:55.590Z,2.93
2023-02-16T05:59:22.386Z,3.07
2023-02-16T06:01:51.924Z,3.05
2023-02-16T06:04:19.856Z,2.95
2023-02-16T06:06:49.006Z,2.82
2023-02-16T06:09:15.494Z,2.85
2023-02-16T06:11:42.567Z,2.87
2023-02-16T06:14:35.463Z,2.86
2023-02-16T06:17:01.961Z,2.84
2023-02-16T06:19:28.447Z,2.89
2023-02-16T06:21:55.015Z,3.00
2023-02-16T06:24:21.505Z,3.05
2023-02-16T06:26:51.196Z,2.92
2023-02-16T06:29:17.734Z,2.92
2023-02-16T06:31:44.490Z,2.80
2023-02-16T06:34:11.145Z,2.76
2023-02-16T06:36:37.895Z,2.73
2023-02-16T06:39:04.764Z,2.73
2023-02-16T06:41:31.710Z,2.71
2023-02-16T06:44:04.117Z,2.69
2023-02-16T06:46:31.055Z,2.61
2023-02-16T06:48:57.847Z,2.69
2023-02-16T06:51:24.372Z,2.51
2023-02-16T06:53:51.704Z,2.83
2023-02-16T06:56:20.144Z,2.71
2023-02-16T06:58:46.802Z,2.71
2023-02-16T07:01:13.562Z,2.57
2023-02-16T07:03:40.357Z,2.56
2023-02-16T07:06:07.038Z,2.64
2023-02-16T07:08:35.693Z,2.95
2023-02-16T07:11:02.531Z,2.95
2023-02-16T07:13:28.996Z,3.07
2023-02-16T07:15:55.510Z,3.03
2023-02-16T07:18:22.613Z,2.99
2023-02-16T07:20:49.117Z,3.07
2023-02-16T07:23:15.674Z,3.12
2023-02-16T07:25:42.170Z,3.21
2023-02-16T07:28:08.749Z,3.35
2023-02-16T07:30:36.105Z,3.53
2023-02-16T07:33:02.964Z,3.74
2023-02-16T07:35:29.895Z,3.89
2023-02-16T07:37:56.625Z,4.39
2023-02-16T07:40:23.183Z,5.02
2023-02-16T07:42:51.992Z,5.76
2023-02-16T07:45:19.099Z,6.85
2023-02-16T07:47:45.737Z,7.91
2023-02-16T07:50:12.404Z,8.75
2023-02-16T07:52:39.516Z,9.64
2023-02-16T07:55:06.433Z,10.06
2023-02-16T07:57:32.980Z,10.32
2023-02-16T07:59:59.565Z,10.63
2023-02-16T08:02:27.430Z,11.01
2023-02-16T08:04:54.145Z,11.18
2023-02-16T08:07:26.779Z,11.08
2023-02-16T08:09:53.504Z,10.85
2023-02-16T08:12:21.275Z,10.61
2023-02-16T08:14:47.906Z,10.45
2023-02-16T08:17:14.947Z,10.32
2023-02-16T08:19:41.730Z,10.30
2023-02-16T08:22:09.172Z,10.36
2023-02-16T08:24:35.950Z,10.64
2023-02-16T08:27:04.375Z,10.27
2023-02-16T08:29:32.493Z,9.97
2023-02-16T08:31:59.727Z,9.89
2023-02-16T08:34:26.876Z,9.90
2023-02-16T08:36:56.840Z,10.15
2023-02-16T08:39:30.854Z,10.56
2023-02-16T08:41:58.643Z,10.85
2023-02-16T08:44:26.518Z,11.10
2023-02-16T08:46:55.591Z,11.41
2023-02-16T08:49:26.184Z,11.73
2023-02-16T08:51:55.548Z,12.10
2023-02-16T08:54:30.516Z,12.32
2023-02-16T08:56:59.159Z,12.46
2023-02-16T08:59:28.458Z,12.60
2023-02-16T09:01:57.008Z,12.92
2023-02-16T09:04:25.881Z,13.17
2023-02-16T09:06:56.434Z,13.56
2023-02-16T09:09:26.729Z,13.73
2023-02-16T09:11:57.852Z,13.26
2023-02-16T09:14:25.201Z,13.26
2023-02-16T09:16:56.259Z,13.52
2023-02-16T09:19:24.673Z,13.73
2023-02-16T09:21:53.784Z,13.91
2023-02-16T09:24:20.270Z,13.81
2023-02-16T09:26:47.090Z,13.19
2023-02-16T09:29:14.208Z,12.91
2023-02-16T09:31:41.528Z,12.97
2023-02-16T09:34:14.010Z,12.70
2023-02-16T09:36:41.096Z,12.82
2023-02-16T09:39:08.294Z,13.12
2023-02-16T09:41:40.859Z,13.15
2023-02-16T09:44:25.843Z,12.83
2023-02-16T09:46:58.868Z,12.24
2023-02-16T09:49:44.027Z,12.70
2023-02-16T09:52:28.501Z,12.79
2023-02-16T09:54:59.451Z,12.92
2023-02-16T09:57:31.706Z,13.44
2023-02-16T10:00:07.930Z,13.49
2023-02-16T10:02:47.284Z,13.96
2023-02-16T10:05:20.335Z,14.02
2023-02-16T10:07:59.950Z,14.29
2023-02-16T10:10:40.188Z,14.35
2023-02-16T10:13:17.786Z,14.44
2023-02-16T10:15:46.187Z,14.43
2023-02-16T10:18:29.461Z,14.86
2023-02-16T10:21:00.575Z,15.02
2023-02-16T10:23:58.958Z,15.30
2023-02-16T10:26:42.891Z,15.14
2023-02-16T10:29:23.100Z,15.19
2023-02-16T10:32:03.136Z,15.49
2023-02-16T10:34:50.086Z,16.23
2023-02-16T10:37:16.576Z,17.00
2023-02-16T10:39:43.013Z,17.27
2023-02-16T10:42:23.909Z,17.60
2023-02-16T10:45:34.589Z,17.60
2023-02-16T10:48:01.271Z,17.59
2023-02-16T10:50:35.946Z,17.68
2023-02-16T10:53:10.822Z,17.95
2023-02-16T10:55:38.389Z,18.29
2023-02-16T10:58:05.093Z,18.77
2023-02-16T11:00:56.707Z,19.01
2023-02-16T11:03:26.133Z,19.35
2023-02-16T11:05:53.641Z,19.68
2023-02-16T11:08:20.572Z,19.61
2023-02-16T11:10:53.374Z,20.22
2023-02-16T11:13:34.423Z,20.70
2023-02-16T11:16:08.853Z,21.60
2023-02-16T11:18:45.713Z,22.28
2023-02-16T11:21:13.329Z,22.67
2023-02-16T11:23:42.175Z,22.46
2023-02-16T11:26:14.508Z,22.09
2023-02-16T11:28:43.497Z,21.90
2023-02-16T11:31:12.454Z,21.69
2023-02-16T11:33:41.446Z,21.31
2023-02-16T11:36:20.215Z,20.85
2023-02-16T11:39:02.137Z,20.68
2023-02-16T11:41:30.117Z,20.57
2023-02-16T11:43:57.904Z,20.83
2023-02-16T11:46:24.845Z,20.69
2023-02-16T11:48:55.429Z,20.45
2023-02-16T11:51:34.956Z,19.67
2023-02-16T11:54:06.071Z,19.61
2023-02-16T11:56:35.415Z,19.43
2023-02-16T11:59:07.252Z,19.77
2023-02-16T12:01:55.466Z,20.09
2023-02-16T12:04:40.436Z,20.50
2023-02-16T12:07:45.616Z,20.61
2023-02-16T12:10:29.555Z,21.00
2023-02-16T12:13:16.513Z,21.44
2023-02-16T12:16:12.735Z,21.89
2023-02-16T12:18:58.410Z,22.26
2023-02-16T12:21:45.446Z,23.18
2023-02-16T12:24:27.437Z,23.23
2023-02-16T12:26:58.439Z,23.51
2023-02-16T12:29:34.064Z,23.76
2023-02-16T12:32:06.826Z,23.93
2023-02-16T12:34:47.068Z,24.07
2023-02-16T12:37:39.209Z,24.25
2023-02-16T12:40:46.440Z,24.38
2023-02-16T12:43:40.989Z,24.25
2023-02-16T12:46:47.108Z,24.14
2023-02-16T12:49:29.693Z,24.26
2023-02-16T12:52:31.711Z,24.55
2023-02-16T12:55:36.621Z,24.38
2023-02-16T12:58:21.005Z,23.51
2023-02-16T13:00:52.474Z,23.75
2023-02-16T13:03:25.826Z,23.59
2023-02-16T13:06:26.452Z,23.49
2023-02-16T13:09:04.585Z,23.34
2023-02-16T13:11:49.252Z,23.51
2023-02-16T13:14:21.805Z,23.48
2023-02-16T13:16:55.606Z,24.08
2023-02-16T13:19:24.141Z,24.23
2023-02-16T13:21:57.181Z,23.93
2023-02-16T13:25:07.050Z,23.48
2023-02-16T13:28:03.853Z,23.76
2023-02-16T13:30:40.413Z,24.13
2023-02-16T13:33:14.578Z,24.06
2023-02-16T13:35:57.361Z,23.54
2023-02-16T13:38:43.086Z,23.33
2023-02-16T13:41:28.502Z,23.82
2023-02-16T13:44:07.201Z,24.34
2023-02-16T13:46:41.512Z,24.34
2023-02-16T13:49:30.405Z,23.99
2023-02-16T13:51:58.673Z,24.13
2023-02-16T13:54:30.674Z,24.03
2023-02-16T13:56:57.828Z,23.72
2023-02-16T13:59:26.296Z,23.72
2023-02-16T14:01:55.125Z,23.69
2023-02-16T14:04:31.217Z,23.63
2023-02-16T14:07:01.226Z,23.46
2023-02-16T14:09:36.216Z,23.55
2023-02-16T14:12:04.579Z,23.49
2023-02-16T14:14:33.941Z,23.57
2023-02-16T14:17:19.210Z,23.40
2023-02-16T14:19:52.950Z,23.40
2023-02-16T14:22:23.327Z,23.48
2023-02-16T14:24:58.768Z,23.66
2023-02-16T14:27:44.069Z,23.54
2023-02-16T14:30:35.783Z,23.52
2023-02-16T14:33:19.447Z,24.25
2023-02-16T14:35:59.914Z,24.22
2023-02-16T14:38:32.941Z,24.32
2023-02-16T14:41:02.505Z,24.10
2023-02-16T14:43:46.061Z,23.93
2023-02-16T14:46:27.176Z,24.10
2023-02-16T14:49:29.094Z,23.94
2023-02-16T14:52:16.940Z,24.04
2023-02-16T14:55:07.985Z,23.78
2023-02-16T14:57:37.536Z,23.24
2023-02-16T15:00:42.102Z,23.06
2023-02-16T15:03:24.330Z,22.62
2023-02-16T15:06:02.440Z,22.00
2023-02-16T15:08:38.070Z,21.55
2023-02-16T15:11:20.282Z,21.40
2023-02-16T15:13:51.805Z,21.21
2023-02-16T15:16:18.422Z,21.24
2023-02-16T15:18:56.213Z,21.48
2023-02-16T15:21:28.351Z,21.72
2023-02-16T15:23:57.457Z,21.90
2023-02-16T15:26:30.329Z,21.86
2023-02-16T15:29:22.702Z,21.87
2023-02-16T15:31:49.571Z,22.02
2023-02-16T15:34:28.825Z,22.04
2023-02-16T15:36:59.034Z,22.19
2023-02-16T15:39:48.409Z,22.46
2023-02-16T15:42:27.454Z,22.39
2023-02-16T15:44:53.968Z,22.03
2023-02-16T15:47:28.621Z,21.57
2023-02-16T15:49:57.246Z,20.93
2023-02-16T15:52:36.955Z,20.53
2023-02-16T15:55:06.892Z,20.28
2023-02-16T15:57:38.748Z,20.02
2023-02-16T16:00:20.831Z,19.97
2023-02-16T16:02:50.462Z,19.70
2023-02-16T16:05:27.541Z,19.51
2023-02-16T16:07:57.529Z,19.22
2023-02-16T16:10:35.656Z,19.44
2023-02-16T16:13:09.803Z,19.59
2023-02-16T16:15:41.634Z,19.42
2023-02-16T16:18:44.691Z,19.33
2023-02-16T16:21:34.267Z,19.33
2023-02-16T16:24:07.781Z,19.33
2023-02-16T16:26:50.897Z,19.04
2023-02-16T16:29:31.893Z,19.30
2023-02-16T16:31:58.636Z,19.30
2023-02-16T16:34:41.954Z,18.94
2023-02-16T16:37:38.057Z,18.76
2023-02-16T16:40:08.784Z,18.60
2023-02-16T16:42:39.256Z,18.38
2023-02-16T16:45:34.226Z,18.10
2023-02-16T16:48:07.457Z,17.90
2023-02-16T16:50:39.419Z,17.62
2023-02-16T16:53:30.851Z,17.37
2023-02-16T16:56:02.137Z,17.02
2023-02-16T16:58:29.089Z,16.86
2023-02-16T17:00:59.948Z,16.41
2023-02-16T17:03:30.582Z,15.92
2023-02-16T17:05:58.502Z,15.60
2023-02-16T17:08:27.309Z,15.58
2023-02-16T17:10:58.185Z,15.40
2023-02-16T17:13:27.412Z,15.23
2023-02-16T17:16:04.442Z,15.11
2023-02-16T17:18:31.204Z,14.96
2023-02-16T17:20:58.071Z,14.88
2023-02-16T17:23:27.021Z,14.78
2023-02-16T17:25:53.569Z,14.64
2023-02-16T17:28:20.802Z,14.43
2023-02-16T17:30:47.369Z,14.32
2023-02-16T17:33:14.119Z,14.12
2023-02-16T17:35:43.333Z,14.03
2023-02-16T17:38:13.205Z,14.01
2023-02-16T17:40:41.325Z,14.03
2023-02-16T17:43:13.454Z,13.97
2023-02-16T17:45:40.303Z,13.89
2023-02-16T17:48:10.432Z,13.95
2023-02-16T17:50:36.897Z,13.90
2023-02-16T17:53:03.433Z,13.99
2023-02-16T17:55:30.018Z,13.98
2023-02-16T17:57:59.634Z,13.97
2023-02-16T18:00:29.213Z,13.92
2023-02-16T18:02:58.762Z,13.98
2023-02-16T18:05:27.401Z,13.95
2023-02-16T18:07:53.935Z,13.84
2023-02-16T18:10:35.456Z,13.77
2023-02-16T18:13:02.113Z,13.73
2023-02-16T18:15:28.835Z,13.66
2023-02-16T18:18:00.362Z,13.63
2023-02-16T18:20:27.450Z,13.43
2023-02-16T18:22:54.428Z,13.38
2023-02-16T18:25:21.172Z,13.30
2023-02-16T18:27:47.718Z,13.35
2023-02-16T18:30:15.305Z,13.31
2023-02-16T18:32:42.592Z,13.42
2023-02-16T18:35:10.758Z,13.35
2023-02-16T18:37:37.635Z,13.15
2023-02-16T18:40:06.541Z,13.05
2023-02-16T18:42:33.409Z,13.04
2023-02-16T18:45:00.130Z,12.91
2023-02-16T18:47:29.819Z,12.93
2023-02-16T18:50:00.360Z,12.92
2023-02-16T18:52:29.985Z,12.83
2023-02-16T18:54:59.714Z,12.82
2023-02-16T18:57:29.945Z,12.73
2023-02-16T18:59:59.066Z,12.82
2023-02-16T19:02:30.213Z,12.84
2023-02-16T19:05:00.268Z,12.82
2023-02-16T19:07:27.960Z,12.64
2023-02-16T19:09:57.149Z,12.61
2023-02-16T19:12:23.886Z,12.39
2023-02-16T19:14:50.466Z,12.45
2023-02-16T19:17:17.233Z,12.38
2023-02-16T19:19:44.207Z,12.11
2023-02-16T19:22:11.088Z,12.00
2023-02-16T19:24:38.709Z,11.89
2023-02-16T19:27:05.334Z,11.80
2023-02-16T19:29:32.125Z,11.88
2023-02-16T19:31:58.927Z,11.80
2023-02-16T19:34:28.360Z,11.59
2023-02-16T19:37:32.733Z,11.59
2023-02-16T19:39:59.352Z,11.42
2023-02-16T19:42:30.974Z,11.38
2023-02-16T19:45:00.721Z,11.58
2023-02-16T19:47:27.219Z,11.58
2023-02-16T19:50:03.864Z,11.47
2023-02-16T19:52:30.553Z,11.48
2023-02-16T19:55:00.217Z,11.52
2023-02-16T19:57:30.204Z,11.56
2023-02-16T19:59:59.736Z,11.41
2023-02-16T20:02:29.502Z,11.48
2023-02-16T20:05:06.429Z,11.46
2023-02-16T20:07:35.014Z,11.46
2023-02-16T20:10:01.540Z,11.38
2023-02-16T20:12:28.723Z,11.44
2023-02-16T20:15:01.153Z,11.42
2023-02-16T20:17:27.720Z,11.36
2023-02-16T20:19:54.214Z,11.32
2023-02-16T20:22:20.771Z,11.23
2023-02-16T20:24:47.334Z,10.99
2023-02-16T20:27:14.080Z,10.71
2023-02-16T20:29:42.785Z,10.59
2023-02-16T20:32:09.483Z,10.88
2023-02-16T20:34:36.056Z,10.85
2023-02-16T20:37:02.552Z,10.69
2023-02-16T20:39:29.275Z,10.49
2023-02-16T20:42:00.093Z,10.49
2023-02-16T20:44:27.995Z,10.48
2023-02-16T20:46:56.546Z,10.57
2023-02-16T20:49:23.141Z,10.76
2023-02-16T20:51:49.696Z,11.13
2023-02-16T20:54:16.289Z,10.94
2023-02-16T20:56:42.814Z,10.81
2023-02-16T20:59:10.972Z,10.52
2023-02-16T21:01:40.792Z,10.38
2023-02-16T21:04:08.201Z,10.31
2023-02-16T21:06:35.565Z,10.34
2023-02-16T21:09:02.925Z,10.27
2023-02-16T21:11:29.511Z,10.09
2023-02-16T21:13:59.134Z,10.16
2023-02-16T21:16:30.648Z,10.24
2023-02-16T21:18:57.905Z,10.24
2023-02-16T21:21:25.990Z,10.29
2023-02-16T21:23:54.366Z,10.37
2023-02-16T21:26:23.918Z,10.36
2023-02-16T21:28:50.785Z,10.63
2023-02-16T21:31:21.660Z,10.65
2023-02-16T21:33:48.738Z,10.50
2023-02-16T21:36:18.687Z,10.50
2023-02-16T21:38:45.548Z,10.59
2023-02-16T21:41:24.896Z,10.63
2023-02-16T21:43:55.633Z,10.48
2023-02-16T21:46:23.321Z,10.50
2023-02-16T21:48:50.362Z,10.46
2023-02-16T21:51:24.243Z,10.36
2023-02-16T21:53:51.949Z,10.28
2023-02-16T21:56:39.939Z,10.15
2023-02-16T21:59:10.185Z,10.18
2023-02-16T22:01:48.487Z,10.22
2023-02-16T22:04:18.594Z,10.23
2023-02-16T22:06:47.619Z,10.30
2023-02-16T22:09:18.323Z,10.39
2023-02-16T22:11:45.933Z,10.52
2023-02-16T22:14:12.937Z,10.45
2023-02-16T22:16:39.948Z,10.47
2023-02-16T22:19:13.023Z,10.37
2023-02-16T22:21:41.626Z,10.31
2023-02-16T22:24:10.439Z,10.31
2023-02-16T22:26:37.394Z,10.19
2023-02-16T22:29:06.621Z,10.21
2023-02-16T22:31:34.509Z,10.31
2023-02-16T22:34:11.703Z,10.22
2023-02-16T22:36:38.558Z,10.11
2023-02-16T22:39:06.113Z,9.97
2023-02-16T22:41:34.314Z,9.95
2023-02-16T22:44:04.473Z,9.89
2023-02-16T22:46:32.052Z,9.54
2023-02-16T22:49:02.924Z,9.45
2023-02-16T22:51:34.376Z,9.16
2023-02-16T22:54:02.332Z,8.92
2023-02-16T22:56:32.391Z,8.66
2023-02-16T22:59:02.743Z,8.65
2023-02-16T23:01:33.808Z,8.62
2023-02-16T23:04:04.199Z,8.71
2023-02-16T23:06:37.632Z,8.68
2023-02-16T23:09:12.299Z,8.77
2023-02-16T23:11:39.232Z,8.83
2023-02-16T23:14:05.914Z,8.85
2023-02-16T23:16:35.552Z,8.92
2023-02-16T23:19:05.239Z,8.93
2023-02-16T23:21:34.086Z,9.13
2023-02-16T23:24:02.719Z,9.37
2023-02-16T23:26:34.438Z,9.27
2023-02-16T23:29:03.499Z,9.24
2023-02-16T23:31:34.735Z,9.19
2023-02-16T23:34:05.485Z,9.00
2023-02-16T23:36:35.049Z,9.07
2023-02-16T23:39:05.476Z,8.93
2023-02-16T23:41:35.564Z,8.78
2023-02-16T23:44:06.489Z,8.69
2023-02-16T23:46:36.174Z,8.50
2023-02-16T23:49:04.802Z,8.48
2023-02-16T23:51:35.114Z,8.37
2023-02-16T23:54:02.527Z,8.68
2023-02-16T23:56:29.600Z,8.71
2023-02-16T23:58:58.763Z,8.63
